Time;durP1;ratioP1;P1;durP2;ratioP2;P2;SDS_P1;SDS_P2;PMS_P1;PMS_P2;Temp;Humidity;BMP_temperature;BMP_pressure;BME280_temperature;BME280_humidity;BME280_pressure;Samples;Min_cycle;Max_cycle;Signal;HPM_P1;HPM_P2
2022/06/06 00:00:16;;;;;;;0.40;0.40;;;18.40;99.90;;;;;;5093309;28;20239;-94
2022/06/06 00:02:49;;;;;;;0.60;0.40;;;18.00;99.90;;;;;;5096002;28;20207;-93
2022/06/06 00:05:20;;;;;;;0.77;0.60;;;17.70;99.90;;;;;;5091161;28;20242;-94
2022/06/06 00:07:54;;;;;;;1.27;0.50;;;17.50;99.90;;;;;;5087737;28;20218;-95
2022/06/06 00:10:25;;;;;;;2.00;0.43;;;17.30;99.90;;;;;;5084180;28;20215;-94
2022/06/06 00:12:57;;;;;;;2.27;0.43;;;17.20;99.90;;;;;;5070435;28;20203;-94
2022/06/06 00:15:29;;;;;;;0.80;0.60;;;17.20;99.90;;;;;;5090705;28;20200;-94
2022/06/06 00:18:01;;;;;;;1.53;0.70;;;17.40;99.90;;;;;;5070894;28;20207;-94
2022/06/06 00:23:21;;;;;;;0.97;0.50;;;17.60;99.90;;;;;;5079403;28;20210;-95
2022/06/06 00:25:54;;;;;;;1.23;0.60;;;17.60;99.90;;;;;;5091913;28;20203;-94
2022/06/06 00:28:26;;;;;;;1.80;0.77;;;17.60;99.90;;;;;;5089950;28;20211;-94
2022/06/06 00:34:48;;;;;;;0.80;0.60;;;17.60;99.90;;;;;;5090024;28;20680;-94
2022/06/06 00:36:39;;;;;;;0.77;0.60;;;17.70;99.90;;;;;;5070585;28;20199;-94
2022/06/06 00:39:16;;;;;;;2.80;0.60;;;17.60;99.90;;;;;;5085549;28;20281;-94
2022/06/06 00:41:50;;;;;;;0.83;0.53;;;17.80;99.90;;;;;;5084347;28;20709;-95
2022/06/06 00:44:27;;;;;;;1.00;0.60;;;17.60;99.90;;;;;;5090750;28;20203;-93
2022/06/06 00:47:17;;;;;;;3.27;0.50;;;17.50;99.90;;;;;;5096549;28;20203;-94
2022/06/06 00:49:53;;;;;;;0.77;0.50;;;17.40;99.90;;;;;;5067740;28;20208;-94
2022/06/06 00:52:29;;;;;;;0.57;0.50;;;17.30;99.90;;;;;;5081638;28;20203;-95
2022/06/06 00:55:10;;;;;;;1.13;0.47;;;17.20;99.90;;;;;;5086386;28;20242;-94
2022/06/06 00:57:48;;;;;;;0.73;0.50;;;17.20;99.90;;;;;;5065537;28;20203;-95
2022/06/06 01:00:23;;;;;;;0.90;0.50;;;16.90;99.90;;;;;;5078654;28;20598;-92
2022/06/06 01:02:58;;;;;;;1.00;0.60;;;17.00;99.90;;;;;;5059063;28;20233;-94
2022/06/06 01:05:29;;;;;;;1.20;0.50;;;17.00;99.90;;;;;;5076065;28;20214;-94
2022/06/06 01:08:01;;;;;;;1.63;0.63;;;17.00;99.90;;;;;;5079047;28;20204;-94
2022/06/06 01:10:34;;;;;;;2.83;0.60;;;17.00;99.90;;;;;;5078322;28;20246;-94
2022/06/06 01:13:09;;;;;;;0.73;0.40;;;17.00;99.90;;;;;;5058032;28;20215;-94
2022/06/06 01:15:51;;;;;;;2.03;1.00;;;17.00;99.90;;;;;;5062337;28;20215;-94
2022/06/06 01:18:30;;;;;;;1.03;0.80;;;16.70;99.90;;;;;;5061358;28;20200;-93
2022/06/06 01:21:27;;;;;;;2.53;0.80;;;16.70;99.90;;;;;;5066155;28;20236;-94
2022/06/06 01:24:29;;;;;;;0.70;0.50;;;16.70;99.90;;;;;;5074131;28;20208;-95
2022/06/06 01:30:31;;;;;;;0.93;0.60;;;16.60;99.90;;;;;;5046186;27;2999562;-94
2022/06/06 01:33:04;;;;;;;0.97;0.57;;;16.50;99.90;;;;;;5144708;28;20213;-93
2022/06/06 01:35:39;;;;;;;4.93;0.80;;;16.40;99.90;;;;;;5146308;28;20223;-94
2022/06/06 01:38:13;;;;;;;1.97;0.70;;;16.30;99.90;;;;;;5143072;28;20246;-93
2022/06/06 01:40:54;;;;;;;2.00;0.63;;;16.00;99.90;;;;;;5129172;28;20225;-94
2022/06/06 01:43:31;;;;;;;1.93;0.70;;;15.80;99.90;;;;;;5125797;28;20206;-93
2022/06/06 01:46:08;;;;;;;1.87;0.63;;;15.70;99.90;;;;;;5142440;28;20217;-94
2022/06/06 01:48:43;;;;;;;1.73;0.80;;;15.60;99.90;;;;;;5111233;28;20226;-93
2022/06/06 01:51:18;;;;;;;1.80;0.77;;;15.40;99.90;;;;;;5103304;28;20229;-93
2022/06/06 01:53:49;;;;;;;2.57;0.73;;;15.30;99.90;;;;;;5104792;28;20213;-94
2022/06/06 01:56:25;;;;;;;1.57;0.50;;;15.20;99.90;;;;;;5087723;28;20248;-94
2022/06/06 01:59:01;;;;;;;1.27;0.60;;;15.20;99.90;;;;;;5105706;28;20226;-93
2022/06/06 02:01:35;;;;;;;1.50;0.60;;;15.20;99.90;;;;;;5082234;28;20236;-93
2022/06/06 02:04:10;;;;;;;2.27;1.00;;;15.10;99.90;;;;;;5127784;28;20194;-96
2022/06/06 02:06:44;;;;;;;0.97;0.50;;;15.10;99.90;;;;;;4760761;28;10000282;-93
2022/06/06 02:11:51;;;;;;;3.07;1.00;;;15.20;99.90;;;;;;5188745;23;20239;-95
2022/06/06 02:14:23;;;;;;;0.97;0.60;;;15.10;99.90;;;;;;5070088;28;20197;-96
2022/06/06 02:19:38;;;;;;;2.83;0.70;;;15.10;99.90;;;;;;5052063;28;20219;-96
2022/06/06 02:30:26;;;;;;;1.67;0.50;;;15.10;99.90;;;;;;5024426;28;20293;-96
2022/06/06 03:02:29;;;;;;;2.17;0.90;;;14.50;99.90;;;;;;5053301;28;20222;-96
2022/06/06 03:07:47;;;;;;;1.70;0.77;;;14.40;99.90;;;;;;5036440;23;20220;-96
2022/06/06 03:10:29;;;;;;;1.93;0.90;;;14.30;99.90;;;;;;5043261;28;20274;-95
2022/06/06 03:13:14;;;;;;;2.20;0.80;;;14.20;99.90;;;;;;5037446;28;20274;-91
2022/06/06 03:22:04;;;;;;;1.83;0.80;;;14.00;99.90;;;;;;5039338;28;20261;-91
2022/06/06 03:32:52;;;;;;;4.03;0.67;;;13.60;99.90;;;;;;5045083;28;20374;-96
2022/06/06 03:35:42;;;;;;;1.47;0.50;;;13.50;99.90;;;;;;5072047;28;20208;-96
2022/06/06 03:38:21;;;;;;;1.50;0.90;;;13.40;99.90;;;;;;5049162;28;20624;-96
2022/06/06 03:41:07;;;;;;;0.93;0.50;;;13.30;99.90;;;;;;5064421;28;20251;-95
2022/06/06 03:43:46;;;;;;;4.87;1.00;;;13.10;99.90;;;;;;5072033;28;20189;-96
2022/06/06 03:46:31;;;;;;;1.13;0.60;;;13.00;99.90;;;;;;5064061;28;20254;-95
2022/06/06 03:49:19;;;;;;;3.37;0.60;;;12.90;99.90;;;;;;5044013;28;20232;-96
2022/06/06 03:52:16;;;;;;;2.17;0.83;;;12.90;99.90;;;;;;5050958;28;20197;-96
2022/06/06 03:55:01;;;;;;;2.07;0.60;;;12.70;99.90;;;;;;5050706;28;20201;-96
2022/06/06 03:57:42;;;;;;;1.23;0.60;;;12.60;99.90;;;;;;5045789;28;20213;-96
2022/06/06 04:00:17;;;;;;;2.20;0.40;;;12.50;99.90;;;;;;5050709;28;20199;-96
2022/06/06 04:02:52;;;;;;;2.33;0.73;;;12.50;99.90;;;;;;5051891;28;20204;-96
2022/06/06 04:05:30;;;;;;;2.57;1.10;;;12.50;99.90;;;;;;5054796;28;20263;-96
2022/06/06 04:08:20;;;;;;;2.93;0.97;;;12.50;99.90;;;;;;5052983;28;20242;-96
2022/06/06 04:11:00;;;;;;;2.37;0.80;;;12.60;99.90;;;;;;5053458;28;20280;-95
2022/06/06 04:16:26;;;;;;;3.37;1.10;;;12.50;99.90;;;;;;5326433;23;20238;-95
2022/06/06 04:19:16;;;;;;;3.23;0.70;;;12.50;99.90;;;;;;5013217;28;20245;-95
2022/06/06 04:21:57;;;;;;;3.50;0.80;;;12.50;99.90;;;;;;5017510;28;20201;-94
2022/06/06 04:24:51;;;;;;;1.90;1.23;;;12.40;99.90;;;;;;4992933;28;20766;-95
2022/06/06 04:27:31;;;;;;;4.40;1.43;;;12.40;99.90;;;;;;4980050;28;20234;-96
2022/06/06 04:30:06;;;;;;;4.57;1.07;;;12.30;99.90;;;;;;4976770;28;20257;-95
2022/06/06 04:32:53;;;;;;;1.47;0.70;;;12.30;99.90;;;;;;4991233;28;20214;-95
2022/06/06 04:35:32;;;;;;;2.53;0.53;;;12.40;99.90;;;;;;4985439;28;20203;-94
2022/06/06 04:38:12;;;;;;;1.93;0.83;;;12.50;99.90;;;;;;4967736;28;20207;-94
2022/06/06 04:40:51;;;;;;;5.03;0.80;;;12.50;99.90;;;;;;4994473;28;20203;-94
2022/06/06 04:43:30;;;;;;;2.90;0.90;;;12.50;99.90;;;;;;5006847;28;20233;-94
2022/06/06 04:46:07;;;;;;;3.00;0.70;;;12.50;99.90;;;;;;4993920;28;20210;-94
2022/06/06 04:48:42;;;;;;;2.87;0.80;;;12.50;99.90;;;;;;4992285;28;20230;-94
2022/06/06 04:51:15;;;;;;;2.20;1.23;;;12.40;99.90;;;;;;4995469;28;20239;-96
2022/06/06 04:53:49;;;;;;;2.27;0.70;;;12.30;99.90;;;;;;4988980;28;20211;-96
2022/06/06 04:56:23;;;;;;;2.60;0.70;;;12.30;99.90;;;;;;4988784;28;20269;-96
2022/06/06 04:59:01;;;;;;;2.90;0.87;;;12.30;99.90;;;;;;5110959;23;20240;-96
2022/06/06 05:01:35;;;;;;;2.53;1.00;;;12.30;99.90;;;;;;5029325;28;20217;-96
2022/06/06 05:04:09;;;;;;;2.27;0.73;;;12.20;99.90;;;;;;5036357;28;20204;-96
2022/06/06 05:07:24;;;;;;;1.90;0.90;;;12.20;99.90;;;;;;5048341;28;20226;-95
2022/06/06 05:10:22;;;;;;;2.03;0.73;;;12.30;99.90;;;;;;5038023;28;20630;-96
2022/06/06 05:13:25;;;;;;;2.40;0.70;;;12.30;99.90;;;;;;5038372;28;20248;-95
2022/06/06 05:16:16;;;;;;;1.70;0.70;;;12.30;99.90;;;;;;5006491;28;20204;-95
2022/06/06 05:19:18;;;;;;;3.10;0.83;;;12.20;99.90;;;;;;5048029;28;20221;-95
2022/06/06 05:22:05;;;;;;;2.40;0.80;;;12.20;99.90;;;;;;5053266;28;20196;-95
2022/06/06 05:25:03;;;;;;;1.87;0.80;;;12.20;99.90;;;;;;5040441;28;20317;-95
2022/06/06 05:27:51;;;;;;;2.87;0.80;;;12.20;99.90;;;;;;5050672;28;20273;-95
2022/06/06 05:30:38;;;;;;;2.03;0.90;;;12.10;99.90;;;;;;5051157;28;20242;-95
2022/06/06 05:33:16;;;;;;;3.17;0.90;;;12.20;99.90;;;;;;5045206;28;20248;-95
2022/06/06 05:36:09;;;;;;;3.00;1.00;;;12.20;99.90;;;;;;5046787;28;20231;-95
2022/06/06 05:39:21;;;;;;;2.20;0.60;;;12.10;99.90;;;;;;5042773;28;20592;-96
2022/06/06 05:42:13;;;;;;;3.40;0.80;;;12.00;99.90;;;;;;5034136;28;20236;-96
2022/06/06 05:44:55;;;;;;;1.80;0.60;;;12.10;99.90;;;;;;5038104;28;20587;-96
2022/06/06 05:47:38;;;;;;;2.60;0.77;;;12.00;99.90;;;;;;5042754;28;20200;-96
2022/06/06 05:50:35;;;;;;;2.20;0.63;;;12.10;99.90;;;;;;5043350;28;20225;-96
2022/06/06 05:53:35;;;;;;;1.50;0.70;;;12.10;99.90;;;;;;5039720;28;20220;-96
2022/06/06 05:56:22;;;;;;;1.90;0.50;;;12.10;99.90;;;;;;5032617;28;20201;-96
2022/06/06 05:59:10;;;;;;;2.27;0.70;;;12.00;99.90;;;;;;5043225;28;20205;-95
2022/06/06 06:02:00;;;;;;;2.20;0.60;;;12.00;99.90;;;;;;5041882;28;20194;-95
2022/06/06 06:04:48;;;;;;;5.13;0.90;;;12.00;99.90;;;;;;5054913;28;20223;-95
2022/06/06 06:07:28;;;;;;;1.00;0.70;;;12.00;99.90;;;;;;5054267;28;20205;-96
2022/06/06 06:10:09;;;;;;;1.93;0.67;;;11.90;99.90;;;;;;5054296;28;20260;-95
2022/06/06 06:13:16;;;;;;;2.70;0.90;;;11.90;99.90;;;;;;5055254;28;20193;-94
2022/06/06 06:15:47;;;;;;;4.13;0.93;;;11.70;99.90;;;;;;5056086;28;20227;-94
2022/06/06 06:18:24;;;;;;;2.20;0.80;;;11.70;99.90;;;;;;5039174;28;20198;-95
2022/06/06 06:21:05;;;;;;;2.73;0.70;;;11.80;99.90;;;;;;5039557;28;20196;-95
2022/06/06 06:23:41;;;;;;;2.10;0.50;;;11.60;99.90;;;;;;5050625;28;20283;-95
2022/06/06 06:26:14;;;;;;;1.60;0.70;;;11.80;99.90;;;;;;5033581;28;20209;-94
2022/06/06 06:28:49;;;;;;;2.73;0.70;;;11.80;99.90;;;;;;5043550;28;20240;-92
2022/06/06 06:31:38;;;;;;;3.43;0.87;;;11.70;99.90;;;;;;5051348;28;20235;-94
2022/06/06 06:34:24;;;;;;;5.00;0.80;;;11.70;99.90;;;;;;5042105;28;20217;-93
2022/06/06 06:37:05;;;;;;;1.43;0.53;;;11.60;99.90;;;;;;5043192;28;20243;-95
2022/06/06 06:40:00;;;;;;;2.07;0.80;;;11.60;99.90;;;;;;5045172;28;20213;-95
2022/06/06 06:48:38;;;;;;;2.73;0.80;;;11.60;99.90;;;;;;5032842;23;20251;-95
2022/06/06 06:51:15;;;;;;;2.70;0.70;;;11.70;99.90;;;;;;4964341;29;20608;-96
2022/06/06 06:54:10;;;;;;;3.83;0.90;;;11.70;99.90;;;;;;4971656;29;20283;-96
2022/06/06 06:57:01;;;;;;;1.67;0.60;;;11.70;99.90;;;;;;4967382;28;20207;-96
2022/06/06 06:59:42;;;;;;;1.10;0.67;;;11.80;99.90;;;;;;4968367;28;20211;-96
2022/06/06 07:08:38;;;;;;;0.90;0.60;;;11.90;99.90;;;;;;4968135;28;20672;-95
2022/06/06 07:15:04;;;;;;;1.57;0.70;;;11.90;99.90;;;;;;4969990;28;20239;-96
2022/06/06 07:17:43;;;;;;;3.17;0.83;;;11.90;99.90;;;;;;4971877;28;20203;-96
2022/06/06 07:20:18;;;;;;;2.07;1.00;;;11.80;99.90;;;;;;4978370;28;20211;-96
2022/06/06 07:23:02;;;;;;;1.33;0.63;;;11.70;99.90;;;;;;4977706;28;20267;-95
2022/06/06 07:25:40;;;;;;;3.80;0.83;;;11.70;99.90;;;;;;5127281;23;20294;-96
2022/06/06 07:28:14;;;;;;;1.37;0.70;;;11.70;99.90;;;;;;5000959;28;20237;-93
2022/06/06 07:30:57;;;;;;;2.10;0.50;;;11.70;99.90;;;;;;4998694;28;20230;-93
2022/06/06 07:34:08;;;;;;;2.10;0.70;;;11.80;99.90;;;;;;4999032;28;20663;-94
2022/06/06 07:36:50;;;;;;;0.87;0.70;;;11.80;99.90;;;;;;5000503;28;20337;-94
2022/06/06 07:39:31;;;;;;;1.07;0.60;;;11.80;99.90;;;;;;4998131;28;20230;-95
2022/06/06 07:42:13;;;;;;;2.53;0.60;;;11.80;99.90;;;;;;4997745;28;20272;-95
2022/06/06 07:45:09;;;;;;;2.17;0.83;;;11.80;99.90;;;;;;4989931;28;20238;-94
2022/06/06 07:48:08;;;;;;;2.10;0.53;;;11.80;99.90;;;;;;4997814;28;20246;-94
2022/06/06 07:50:45;;;;;;;0.60;0.43;;;11.70;99.90;;;;;;4997309;28;20202;-94
2022/06/06 07:53:28;;;;;;;1.20;0.60;;;11.70;99.90;;;;;;4996700;28;20206;-94
2022/06/06 07:56:07;;;;;;;1.07;0.50;;;11.80;99.90;;;;;;4998207;28;20280;-94
2022/06/06 07:58:50;;;;;;;0.87;0.60;;;11.70;99.90;;;;;;5006007;28;20253;-95
2022/06/06 08:01:32;;;;;;;3.50;0.70;;;11.80;99.90;;;;;;5004530;28;20245;-94
2022/06/06 08:04:16;;;;;;;3.73;0.90;;;11.70;99.90;;;;;;4998096;28;20663;-95
2022/06/06 08:06:55;;;;;;;5.70;0.70;;;11.70;99.90;;;;;;4998238;28;20225;-95
2022/06/06 08:09:38;;;;;;;1.73;0.63;;;11.60;99.90;;;;;;4997618;28;20662;-94
2022/06/06 08:12:28;;;;;;;3.10;0.80;;;11.80;99.90;;;;;;4997397;28;20257;-95
2022/06/06 08:15:11;;;;;;;2.50;0.50;;;11.70;99.90;;;;;;4996534;28;20210;-94
2022/06/06 08:18:01;;;;;;;4.50;0.90;;;11.60;99.90;;;;;;5002635;28;20233;-95
2022/06/06 08:20:39;;;;;;;1.67;1.00;;;11.70;99.90;;;;;;5000960;28;20206;-96
2022/06/06 08:23:13;;;;;;;1.23;0.57;;;11.70;99.90;;;;;;4978861;28;20718;-96
2022/06/06 08:25:48;;;;;;;0.97;0.50;;;11.70;99.90;;;;;;4958286;28;20253;-96
2022/06/06 08:28:20;;;;;;;2.17;0.83;;;11.70;99.90;;;;;;4959770;28;20513;-96
2022/06/06 08:30:52;;;;;;;1.70;0.70;;;11.70;99.90;;;;;;4959644;28;20211;-96
2022/06/06 08:33:23;;;;;;;1.50;0.77;;;11.70;99.90;;;;;;4958638;28;20223;-96
2022/06/06 08:36:13;;;;;;;1.50;0.60;;;11.70;99.90;;;;;;4977780;28;20207;-95
2022/06/06 08:39:01;;;;;;;2.20;0.50;;;11.60;99.90;;;;;;4975553;28;20285;-96
2022/06/06 08:42:02;;;;;;;1.50;0.60;;;11.60;99.90;;;;;;4976588;28;20269;-94
2022/06/06 08:44:52;;;;;;;2.93;0.60;;;11.50;99.90;;;;;;4978563;28;20246;-96
2022/06/06 08:47:34;;;;;;;1.13;0.57;;;11.50;99.90;;;;;;4981733;28;20543;-96
2022/06/06 08:50:49;;;;;;;1.33;0.50;;;11.50;99.90;;;;;;4979799;28;20221;-96
2022/06/06 08:54:00;;;;;;;2.70;0.77;;;11.60;99.90;;;;;;4977059;28;20273;-96
2022/06/06 08:56:58;;;;;;;2.33;0.53;;;11.60;99.90;;;;;;4978427;28;20644;-95
2022/06/06 09:00:02;;;;;;;4.20;0.60;;;11.50;99.90;;;;;;4955266;28;20211;-96
2022/06/06 09:03:12;;;;;;;1.17;0.57;;;11.50;99.90;;;;;;4957999;28;20258;-94
2022/06/06 09:06:24;;;;;;;2.27;0.47;;;11.50;99.90;;;;;;4957879;28;20571;-95
2022/06/06 09:09:43;;;;;;;0.87;0.50;;;11.50;99.90;;;;;;4970480;28;20222;-95
2022/06/06 09:12:51;;;;;;;0.93;0.60;;;11.50;99.90;;;;;;4975677;28;20305;-94
2022/06/06 09:15:54;;;;;;;1.20;0.50;;;11.50;99.90;;;;;;4977135;28;20215;-95
2022/06/06 09:18:56;;;;;;;2.70;0.67;;;11.60;99.90;;;;;;4945996;28;20246;-95
2022/06/06 09:21:51;;;;;;;2.77;0.57;;;11.80;99.90;;;;;;4977726;28;20269;-94
2022/06/06 09:24:56;;;;;;;1.63;0.80;;;11.70;99.90;;;;;;4977719;28;20211;-95
2022/06/06 09:28:11;;;;;;;1.73;0.50;;;11.60;99.90;;;;;;4954139;28;20223;-95
2022/06/06 09:31:21;;;;;;;2.23;0.60;;;11.60;99.90;;;;;;4988588;28;20269;-95
2022/06/06 09:34:24;;;;;;;1.77;0.60;;;11.50;99.90;;;;;;4943790;28;20683;-93
2022/06/06 09:37:08;;;;;;;4.23;1.17;;;11.60;99.90;;;;;;4964046;28;20218;-95
2022/06/06 09:39:56;;;;;;;2.90;0.60;;;11.60;99.90;;;;;;4972492;28;20238;-96
2022/06/06 09:42:40;;;;;;;2.60;0.43;;;11.60;99.90;;;;;;4978274;28;20552;-96
2022/06/06 09:45:34;;;;;;;1.97;0.67;;;11.60;99.90;;;;;;4977222;28;20301;-96
2022/06/06 09:48:41;;;;;;;1.13;0.50;;;11.60;99.90;;;;;;4984434;28;20199;-93
2022/06/06 09:51:51;;;;;;;2.57;0.80;;;11.60;99.90;;;;;;4987108;28;20730;-95
2022/06/06 10:01:53;;;;;;;2.77;0.60;;;11.50;99.90;;;;;;4960255;29;20212;-93
2022/06/06 10:05:03;;;;;;;3.23;0.77;;;11.40;99.90;;;;;;4961072;28;20243;-94
2022/06/06 10:08:06;;;;;;;1.43;0.60;;;11.40;99.90;;;;;;4959773;29;20216;-93
2022/06/06 10:11:16;;;;;;;2.47;0.60;;;11.40;99.90;;;;;;4960648;28;20616;-95
2022/06/06 10:13:59;;;;;;;1.80;0.50;;;11.50;99.90;;;;;;4958584;29;20684;-96
2022/06/06 10:16:53;;;;;;;1.73;0.70;;;11.50;99.90;;;;;;4961152;28;20715;-95
2022/06/06 10:19:47;;;;;;;2.53;0.60;;;11.40;99.90;;;;;;4961457;28;20218;-95
2022/06/06 10:22:55;;;;;;;0.50;0.40;;;11.50;99.90;;;;;;4952986;28;20265;-95
2022/06/06 10:25:49;;;;;;;1.40;0.60;;;11.60;99.90;;;;;;4958011;28;20211;-94
2022/06/06 10:28:54;;;;;;;1.23;0.50;;;11.60;99.90;;;;;;4961005;28;20215;-95
2022/06/06 10:31:41;;;;;;;1.10;0.40;;;11.60;99.90;;;;;;4961075;28;20218;-94
2022/06/06 10:34:34;;;;;;;2.00;0.40;;;11.60;99.90;;;;;;4960663;28;20310;-94
2022/06/06 10:37:37;;;;;;;1.07;0.53;;;11.60;99.90;;;;;;4961532;28;20235;-94
2022/06/06 10:40:33;;;;;;;1.17;0.40;;;11.50;99.90;;;;;;4964434;28;20632;-96
2022/06/06 10:43:52;;;;;;;1.37;0.57;;;11.40;99.90;;;;;;4961294;28;20238;-94
2022/06/06 10:46:33;;;;;;;1.70;0.53;;;11.40;99.90;;;;;;4952254;28;20239;-95
2022/06/06 10:49:22;;;;;;;1.80;0.40;;;11.40;99.90;;;;;;4961803;28;20219;-95
2022/06/06 10:52:23;;;;;;;2.53;0.60;;;11.40;99.90;;;;;;4963451;28;20215;-95
2022/06/06 10:55:38;;;;;;;3.07;0.80;;;11.40;99.90;;;;;;4965658;28;20231;-94
2022/06/06 10:58:59;;;;;;;1.57;0.50;;;11.30;99.90;;;;;;5126634;23;20261;-96
2022/06/06 11:02:11;;;;;;;2.80;0.70;;;11.30;99.90;;;;;;5016171;28;20201;-96
2022/06/06 11:05:23;;;;;;;1.97;0.80;;;11.30;99.90;;;;;;5008160;28;20210;-96
2022/06/06 11:08:21;;;;;;;2.67;0.70;;;11.50;99.90;;;;;;5015183;28;20213;-95
2022/06/06 11:11:24;;;;;;;0.60;0.40;;;11.50;99.90;;;;;;5022599;28;20218;-96
2022/06/06 11:14:04;;;;;;;3.07;0.80;;;11.40;99.90;;;;;;5020153;28;20261;-96
2022/06/06 11:17:09;;;;;;;1.73;0.53;;;11.30;99.90;;;;;;5019830;28;20210;-96
2022/06/06 11:20:14;;;;;;;2.73;0.60;;;11.30;99.90;;;;;;5019816;28;20210;-96
2022/06/06 11:22:53;;;;;;;1.60;0.63;;;11.30;99.90;;;;;;5009099;28;20296;-96
2022/06/06 11:25:27;;;;;;;3.13;0.83;;;11.20;99.90;;;;;;5004856;28;20214;-95
2022/06/06 11:28:45;;;;;;;1.57;0.80;;;11.20;99.90;;;;;;5004899;28;20207;-96
2022/06/06 11:31:40;;;;;;;2.80;0.70;;;11.30;99.90;;;;;;4978806;28;20659;-95
2022/06/06 11:34:46;;;;;;;1.27;0.50;;;11.30;99.90;;;;;;4978441;28;20234;-96
2022/06/06 11:37:55;;;;;;;1.27;0.83;;;11.30;99.90;;;;;;5015535;28;20212;-95
2022/06/06 11:41:00;;;;;;;4.37;0.60;;;11.20;99.90;;;;;;5015513;28;20268;-96
2022/06/06 11:44:10;;;;;;;1.60;0.53;;;11.10;99.90;;;;;;5002446;28;20212;-96
2022/06/06 11:47:08;;;;;;;0.93;0.67;;;11.10;99.90;;;;;;4980342;28;20234;-94
2022/06/06 11:50:20;;;;;;;2.17;0.60;;;11.10;99.90;;;;;;4977979;28;20553;-94
2022/06/06 11:53:31;;;;;;;2.50;0.87;;;11.10;99.90;;;;;;4978392;28;20231;-95
2022/06/06 11:56:13;;;;;;;0.87;0.57;;;11.20;99.90;;;;;;4975710;28;20226;-95
2022/06/06 11:59:36;;;;;;;1.80;0.70;;;11.20;99.90;;;;;;4979779;28;20238;-94
2022/06/06 12:02:31;;;;;;;0.90;0.53;;;11.20;99.90;;;;;;4979573;28;20215;-95
2022/06/06 12:05:49;;;;;;;2.10;0.70;;;11.10;99.90;;;;;;4983726;28;20218;-95
2022/06/06 12:08:45;;;;;;;1.47;0.80;;;11.10;99.90;;;;;;4951988;29;20215;-95
2022/06/06 12:11:52;;;;;;;0.93;0.60;;;11.10;99.90;;;;;;4940600;28;20203;-95
2022/06/06 12:14:41;;;;;;;0.70;0.57;;;11.10;99.90;;;;;;4985460;28;20781;-95
2022/06/06 12:17:24;;;;;;;2.40;0.77;;;11.10;99.90;;;;;;5010609;28;20286;-95
2022/06/06 12:20:31;;;;;;;1.73;0.70;;;11.00;99.90;;;;;;5014872;28;20187;-94
2022/06/06 12:23:14;;;;;;;0.93;0.80;;;11.00;99.90;;;;;;5016020;28;20230;-95
2022/06/06 12:26:20;;;;;;;1.03;0.53;;;11.00;99.90;;;;;;5014369;28;20201;-95
2022/06/06 12:29:35;;;;;;;2.13;0.60;;;10.90;99.90;;;;;;4996980;28;20243;-95
2022/06/06 12:32:43;;;;;;;0.90;0.73;;;11.00;99.90;;;;;;4987892;28;20299;-95
2022/06/06 12:35:21;;;;;;;0.93;0.63;;;11.00;99.90;;;;;;5000750;28;20237;-95
2022/06/06 12:38:08;;;;;;;2.43;0.70;;;11.00;99.90;;;;;;4999446;28;20210;-95
2022/06/06 12:40:48;;;;;;;0.50;0.40;;;11.00;99.90;;;;;;4997042;28;20272;-95
2022/06/06 12:43:31;;;;;;;1.00;0.60;;;11.00;99.90;;;;;;4997177;28;20214;-96
2022/06/06 12:46:21;;;;;;;3.40;0.73;;;11.00;99.90;;;;;;4998298;28;20220;-96
2022/06/06 12:49:13;;;;;;;3.80;0.60;;;11.00;99.90;;;;;;4998296;28;20248;-96
2022/06/06 12:52:02;;;;;;;0.73;0.40;;;11.00;99.90;;;;;;4997255;28;20222;-96
2022/06/06 12:58:07;;;;;;;2.40;0.60;;;11.00;99.90;;;;;;5011693;28;20209;-96
2022/06/06 13:03:46;;;;;;;1.17;0.50;;;10.90;99.90;;;;;;4998632;28;20217;-94
2022/06/06 13:06:33;;;;;;;1.20;0.60;;;11.00;99.90;;;;;;4997345;28;20264;-95
2022/06/06 13:09:21;;;;;;;3.40;0.87;;;10.90;99.90;;;;;;5001158;28;20286;-95
2022/06/06 13:12:00;;;;;;;0.90;0.60;;;10.90;99.90;;;;;;5010586;28;20206;-96
2022/06/06 13:14:50;;;;;;;2.60;0.60;;;11.00;99.90;;;;;;5010862;28;20277;-95
2022/06/06 13:17:29;;;;;;;1.20;0.67;;;11.00;99.90;;;;;;4997315;28;20392;-94
2022/06/06 13:20:18;;;;;;;1.83;0.57;;;11.00;99.90;;;;;;4996694;28;20260;-95
2022/06/06 13:23:28;;;;;;;0.83;0.50;;;10.90;99.90;;;;;;4996800;28;20265;-95
2022/06/06 13:26:24;;;;;;;3.00;0.60;;;11.00;99.90;;;;;;4997232;28;20284;-96
2022/06/06 13:28:57;;;;;;;0.60;0.57;;;11.00;99.90;;;;;;5011388;28;20198;-96
2022/06/06 13:31:43;;;;;;;1.40;0.90;;;11.00;99.90;;;;;;5005763;28;20663;-95
2022/06/06 13:34:26;;;;;;;2.07;0.70;;;11.10;99.90;;;;;;4996857;28;20230;-96
2022/06/06 13:37:16;;;;;;;1.73;0.50;;;11.10;99.90;;;;;;4996550;28;20211;-96
2022/06/06 13:40:12;;;;;;;2.63;0.90;;;11.10;99.90;;;;;;5000479;28;20243;-96
2022/06/06 13:43:10;;;;;;;1.07;0.40;;;11.10;99.90;;;;;;5001961;28;20206;-96
2022/06/06 13:45:49;;;;;;;1.80;0.37;;;11.00;99.90;;;;;;5013505;28;20218;-95
2022/06/06 13:48:49;;;;;;;0.70;0.50;;;11.00;99.90;;;;;;4991904;28;20211;-95
2022/06/06 13:51:39;;;;;;;0.77;0.40;;;11.10;99.90;;;;;;4985613;28;20238;-95
2022/06/06 13:54:29;;;;;;;1.63;0.40;;;11.20;99.90;;;;;;4997804;28;20249;-95
2022/06/06 13:57:15;;;;;;;1.23;0.40;;;11.30;99.90;;;;;;4983311;28;20268;-94
2022/06/06 14:00:20;;;;;;;0.53;0.30;;;11.40;99.90;;;;;;4996524;28;20293;-96
2022/06/06 14:03:18;;;;;;;0.40;0.40;;;11.40;99.90;;;;;;4999437;28;20214;-94
2022/06/06 14:06:24;;;;;;;0.80;0.40;;;11.40;99.90;;;;;;4996294;28;20206;-95
2022/06/06 14:08:57;;;;;;;1.07;0.60;;;11.40;99.90;;;;;;4996185;28;20222;-95
2022/06/06 14:12:06;;;;;;;3.13;0.50;;;11.40;99.90;;;;;;4997811;28;20210;-95
2022/06/06 14:14:39;;;;;;;0.90;0.50;;;11.50;99.90;;;;;;5008152;28;20705;-96
2022/06/06 14:17:25;;;;;;;2.90;0.50;;;11.50;99.90;;;;;;5017359;28;20241;-95
2022/06/06 14:20:18;;;;;;;0.90;0.40;;;11.60;99.90;;;;;;5015778;28;20275;-96
2022/06/06 14:22:52;;;;;;;1.97;0.50;;;11.50;99.90;;;;;;4998331;28;20261;-96
2022/06/06 14:25:25;;;;;;;2.57;0.80;;;11.50;99.90;;;;;;4981478;28;20211;-95
2022/06/06 14:28:19;;;;;;;2.73;0.50;;;11.50;99.90;;;;;;4977207;28;20207;-93
2022/06/06 14:30:51;;;;;;;1.80;0.40;;;11.50;99.90;;;;;;4978062;28;20207;-95
2022/06/06 14:33:27;;;;;;;1.33;0.40;;;11.50;99.90;;;;;;4977283;28;20215;-96
2022/06/06 14:36:17;;;;;;;0.97;0.40;;;11.70;99.90;;;;;;4977255;28;20269;-96
2022/06/06 14:38:54;;;;;;;0.70;0.70;;;11.60;99.90;;;;;;4987308;28;20266;-96
2022/06/06 14:41:31;;;;;;;0.30;0.30;;;11.70;99.90;;;;;;5001792;28;20225;-96
2022/06/06 14:44:10;;;;;;;1.10;0.43;;;11.70;99.90;;;;;;4999810;28;20222;-96
2022/06/06 14:46:50;;;;;;;0.40;0.40;;;11.70;99.90;;;;;;4999393;28;20231;-96
2022/06/06 14:49:27;;;;;;;1.70;0.30;;;11.80;99.90;;;;;;4998002;28;20207;-96
2022/06/06 14:52:00;;;;;;;0.57;0.30;;;11.80;99.90;;;;;;4989384;28;20202;-96
2022/06/06 14:57:34;;;;;;;2.00;0.50;;;12.00;99.90;;;;;;5009879;28;20274;-96
2022/06/06 15:03:22;;;;;;;1.60;0.23;;;12.40;99.90;;;;;;4993674;28;20242;-95
2022/06/06 15:06:10;;;;;;;0.53;0.33;;;12.60;99.90;;;;;;4991872;28;20301;-96
2022/06/06 15:24:28;;;;;;;0.40;0.30;;;13.20;99.90;;;;;;5014726;28;20214;-96
2022/06/06 15:27:38;;;;;;;2.03;0.40;;;13.10;99.90;;;;;;5003480;28;20219;-95
2022/06/06 15:36:46;;;;;;;0.40;0.30;;;13.80;99.90;;;;;;4992382;28;20207;-96
2022/06/06 15:39:40;;;;;;;2.13;0.40;;;13.90;99.90;;;;;;4993888;28;20298;-96
2022/06/06 15:42:31;;;;;;;1.17;0.40;;;13.90;99.90;;;;;;4993836;28;20198;-96
2022/06/06 15:48:35;;;;;;;0.73;0.30;;;14.20;99.90;;;;;;4993690;28;20242;-96
2022/06/06 15:51:35;;;;;;;0.93;0.30;;;14.30;99.90;;;;;;4998451;28;20210;-96
2022/06/06 15:54:42;;;;;;;0.17;0.13;;;14.10;99.90;;;;;;4999665;28;20270;-96
2022/06/06 16:01:05;;;;;;;0.93;0.37;;;14.10;99.90;;;;;;5003251;28;20233;-96
2022/06/06 16:04:04;;;;;;;1.30;0.30;;;14.00;99.90;;;;;;4998162;28;20859;-95
2022/06/06 16:06:38;;;;;;;1.10;0.30;;;13.90;99.90;;;;;;4988785;28;20257;-95
2022/06/06 16:09:26;;;;;;;0.43;0.30;;;14.00;99.90;;;;;;4997500;28;20213;-95
2022/06/06 16:12:51;;;;;;;1.23;0.47;;;14.00;99.90;;;;;;5001579;28;20277;-95
2022/06/06 16:15:34;;;;;;;1.67;0.40;;;14.10;99.90;;;;;;4998339;28;20261;-95
2022/06/06 16:18:16;;;;;;;0.40;0.30;;;14.20;99.90;;;;;;4998390;28;20221;-95
2022/06/06 16:20:54;;;;;;;0.43;0.30;;;14.40;99.90;;;;;;5040510;23;20271;-96
2022/06/06 16:23:30;;;;;;;0.30;0.20;;;14.50;99.90;;;;;;5019513;28;20233;-96
2022/06/06 16:26:08;;;;;;;0.40;0.30;;;14.40;99.90;;;;;;5007834;28;20247;-95
2022/06/06 16:34:40;;;;;;;2.00;0.57;;;14.50;99.90;;;;;;5028553;28;20201;-94
2022/06/06 16:40:01;;;;;;;0.40;0.40;;;14.70;99.90;;;;;;5015088;28;20361;-95
2022/06/06 16:48:33;;;;;;;0.50;0.33;;;14.90;99.90;;;;;;5020447;28;20264;-96
2022/06/06 16:51:30;;;;;;;1.67;0.50;;;15.10;99.90;;;;;;5008477;28;20216;-96
2022/06/06 16:54:18;;;;;;;0.97;0.47;;;15.20;99.90;;;;;;5009623;28;20209;-96
2022/06/06 17:03:54;;;;;;;0.50;0.30;;;15.30;99.90;;;;;;5034065;28;20285;-96
2022/06/06 17:21:03;;;;;;;1.10;0.50;;;15.40;99.90;;;;;;5033612;28;20214;-94